sensor_id;sensor_type;location;lat;lon;timestamp;P1;durP1;ratioP1;P2;durP2;ratioP2
52432;SDS011;38352;53.244;6.594;2023-07-24T00:01:00;11.48;;;5.72;;
52432;SDS011;38352;53.244;6.594;2023-07-24T00:03:26;13.05;;;5.95;;
52432;SDS011;38352;53.244;6.594;2023-07-24T00:05:52;13.85;;;5.28;;
52432;SDS011;38352;53.244;6.594;2023-07-24T00:08:18;11.88;;;5.68;;
52432;SDS011;38352;53.244;6.594;2023-07-24T00:10:44;10.07;;;5.82;;
52432;SDS011;38352;53.244;6.594;2023-07-24T00:13:10;9.95;;;5.78;;
52432;SDS011;38352;53.244;6.594;2023-07-24T00:15:38;10.05;;;5.55;;
52432;SDS011;38352;53.244;6.594;2023-07-24T00:18:04;9.98;;;4.85;;
52432;SDS011;38352;53.244;6.594;2023-07-24T00:20:30;9.75;;;5.40;;
52432;SDS011;38352;53.244;6.594;2023-07-24T00:22:58;12.50;;;5.72;;
52432;SDS011;38352;53.244;6.594;2023-07-24T00:25:24;13.00;;;5.80;;
52432;SDS011;38352;53.244;6.594;2023-07-24T00:27:50;12.57;;;5.57;;
52432;SDS011;38352;53.244;6.594;2023-07-24T00:30:16;8.27;;;5.03;;
52432;SDS011;38352;53.244;6.594;2023-07-24T00:32:42;8.95;;;5.40;;
52432;SDS011;38352;53.244;6.594;2023-07-24T00:35:08;10.85;;;5.40;;
52432;SDS011;38352;53.244;6.594;2023-07-24T00:37:34;9.75;;;5.43;;
52432;SDS011;38352;53.244;6.594;2023-07-24T00:40:00;8.15;;;4.95;;
52432;SDS011;38352;53.244;6.594;2023-07-24T00:42:27;14.02;;;5.68;;
52432;SDS011;38352;53.244;6.594;2023-07-24T00:44:53;11.57;;;5.40;;
52432;SDS011;38352;53.244;6.594;2023-07-24T00:47:19;10.85;;;5.30;;
52432;SDS011;38352;53.244;6.594;2023-07-24T00:49:45;13.50;;;5.88;;
52432;SDS011;38352;53.244;6.594;2023-07-24T00:52:12;12.02;;;5.50;;
52432;SDS011;38352;53.244;6.594;2023-07-24T00:54:38;10.38;;;4.82;;
52432;SDS011;38352;53.244;6.594;2023-07-24T00:57:05;13.98;;;6.15;;
52432;SDS011;38352;53.244;6.594;2023-07-24T00:59:31;9.88;;;5.65;;
52432;SDS011;38352;53.244;6.594;2023-07-24T01:01:57;15.20;;;7.07;;
52432;SDS011;38352;53.244;6.594;2023-07-24T01:04:23;10.90;;;5.72;;
52432;SDS011;38352;53.244;6.594;2023-07-24T01:06:50;13.15;;;5.50;;
52432;SDS011;38352;53.244;6.594;2023-07-24T01:09:16;11.30;;;5.78;;
52432;SDS011;38352;53.244;6.594;2023-07-24T01:11:50;14.27;;;6.47;;
52432;SDS011;38352;53.244;6.594;2023-07-24T01:14:29;13.93;;;6.40;;
52432;SDS011;38352;53.244;6.594;2023-07-24T01:16:58;12.88;;;6.07;;
52432;SDS011;38352;53.244;6.594;2023-07-24T01:24:33;11.65;;;6.25;;
52432;SDS011;38352;53.244;6.594;2023-07-24T01:27:01;17.58;;;6.88;;
52432;SDS011;38352;53.244;6.594;2023-07-24T01:29:27;11.95;;;6.38;;
52432;SDS011;38352;53.244;6.594;2023-07-24T01:31:53;13.45;;;5.95;;
52432;SDS011;38352;53.244;6.594;2023-07-24T01:34:19;15.38;;;6.43;;
52432;SDS011;38352;53.244;6.594;2023-07-24T01:36:45;13.40;;;6.30;;
52432;SDS011;38352;53.244;6.594;2023-07-24T01:39:11;12.15;;;6.32;;
52432;SDS011;38352;53.244;6.594;2023-07-24T01:41:38;14.40;;;7.05;;
52432;SDS011;38352;53.244;6.594;2023-07-24T01:44:05;12.75;;;6.68;;
52432;SDS011;38352;53.244;6.594;2023-07-24T01:46:31;12.90;;;7.22;;
52432;SDS011;38352;53.244;6.594;2023-07-24T01:48:57;16.45;;;7.75;;
52432;SDS011;38352;53.244;6.594;2023-07-24T01:51:23;17.75;;;7.93;;
52432;SDS011;38352;53.244;6.594;2023-07-24T01:53:49;12.15;;;7.63;;
52432;SDS011;38352;53.244;6.594;2023-07-24T01:56:15;13.18;;;7.10;;
52432;SDS011;38352;53.244;6.594;2023-07-24T01:58:41;13.48;;;7.55;;
52432;SDS011;38352;53.244;6.594;2023-07-24T02:01:07;17.95;;;8.77;;
52432;SDS011;38352;53.244;6.594;2023-07-24T02:03:33;17.88;;;8.60;;
52432;SDS011;38352;53.244;6.594;2023-07-24T02:05:59;18.02;;;8.77;;
52432;SDS011;38352;53.244;6.594;2023-07-24T02:08:25;16.92;;;9.05;;
52432;SDS011;38352;53.244;6.594;2023-07-24T02:10:51;14.85;;;9.10;;
52432;SDS011;38352;53.244;6.594;2023-07-24T02:13:17;15.57;;;9.20;;
52432;SDS011;38352;53.244;6.594;2023-07-24T02:15:44;17.00;;;9.93;;
52432;SDS011;38352;53.244;6.594;2023-07-24T02:18:10;16.00;;;9.35;;
52432;SDS011;38352;53.244;6.594;2023-07-24T02:20:36;14.95;;;9.23;;
52432;SDS011;38352;53.244;6.594;2023-07-24T02:23:02;17.17;;;9.68;;
52432;SDS011;38352;53.244;6.594;2023-07-24T02:25:28;17.10;;;9.70;;
52432;SDS011;38352;53.244;6.594;2023-07-24T02:27:54;15.52;;;9.75;;
52432;SDS011;38352;53.244;6.594;2023-07-24T02:30:20;18.67;;;9.48;;
52432;SDS011;38352;53.244;6.594;2023-07-24T02:32:46;18.00;;;10.32;;
52432;SDS011;38352;53.244;6.594;2023-07-24T02:35:12;15.63;;;10.05;;
52432;SDS011;38352;53.244;6.594;2023-07-24T02:37:38;15.73;;;9.35;;
52432;SDS011;38352;53.244;6.594;2023-07-24T02:40:04;15.43;;;10.18;;
52432;SDS011;38352;53.244;6.594;2023-07-24T02:42:31;14.57;;;9.27;;
52432;SDS011;38352;53.244;6.594;2023-07-24T02:44:57;18.42;;;10.95;;
52432;SDS011;38352;53.244;6.594;2023-07-24T02:47:24;16.85;;;10.25;;
52432;SDS011;38352;53.244;6.594;2023-07-24T02:49:50;16.67;;;10.90;;
52432;SDS011;38352;53.244;6.594;2023-07-24T02:52:16;16.17;;;10.40;;
52432;SDS011;38352;53.244;6.594;2023-07-24T02:54:42;17.52;;;11.05;;
52432;SDS011;38352;53.244;6.594;2023-07-24T02:57:08;17.38;;;10.88;;
52432;SDS011;38352;53.244;6.594;2023-07-24T02:59:34;15.98;;;10.55;;
52432;SDS011;38352;53.244;6.594;2023-07-24T03:02:00;19.50;;;10.85;;
52432;SDS011;38352;53.244;6.594;2023-07-24T03:04:26;18.48;;;11.15;;
52432;SDS011;38352;53.244;6.594;2023-07-24T03:06:52;20.67;;;11.05;;
52432;SDS011;38352;53.244;6.594;2023-07-24T03:09:18;18.17;;;10.85;;
52432;SDS011;38352;53.244;6.594;2023-07-24T03:11:44;18.65;;;11.10;;
52432;SDS011;38352;53.244;6.594;2023-07-24T03:14:11;19.08;;;11.45;;
52432;SDS011;38352;53.244;6.594;2023-07-24T03:16:37;17.33;;;10.82;;
52432;SDS011;38352;53.244;6.594;2023-07-24T03:19:03;15.02;;;9.98;;
52432;SDS011;38352;53.244;6.594;2023-07-24T03:21:29;17.90;;;11.27;;
52432;SDS011;38352;53.244;6.594;2023-07-24T03:23:55;17.23;;;10.38;;
52432;SDS011;38352;53.244;6.594;2023-07-24T03:26:21;15.20;;;9.90;;
52432;SDS011;38352;53.244;6.594;2023-07-24T03:28:47;15.05;;;9.52;;
52432;SDS011;38352;53.244;6.594;2023-07-24T03:31:13;16.27;;;9.57;;
52432;SDS011;38352;53.244;6.594;2023-07-24T03:33:39;16.80;;;10.18;;
52432;SDS011;38352;53.244;6.594;2023-07-24T03:36:05;15.45;;;9.38;;
52432;SDS011;38352;53.244;6.594;2023-07-24T03:38:31;16.50;;;9.00;;
52432;SDS011;38352;53.244;6.594;2023-07-24T03:40:58;14.40;;;8.73;;
52432;SDS011;38352;53.244;6.594;2023-07-24T03:43:24;12.88;;;8.48;;
52432;SDS011;38352;53.244;6.594;2023-07-24T03:45:50;14.80;;;8.70;;
52432;SDS011;38352;53.244;6.594;2023-07-24T03:48:16;16.52;;;8.98;;
52432;SDS011;38352;53.244;6.594;2023-07-24T03:50:42;14.98;;;8.25;;
52432;SDS011;38352;53.244;6.594;2023-07-24T03:53:08;16.63;;;9.35;;
52432;SDS011;38352;53.244;6.594;2023-07-24T03:55:34;16.30;;;8.30;;
52432;SDS011;38352;53.244;6.594;2023-07-24T03:58:00;16.17;;;8.02;;
52432;SDS011;38352;53.244;6.594;2023-07-24T04:00:26;15.88;;;8.50;;
52432;SDS011;38352;53.244;6.594;2023-07-24T04:02:52;14.23;;;8.45;;
52432;SDS011;38352;53.244;6.594;2023-07-24T04:05:18;12.85;;;7.32;;
52432;SDS011;38352;53.244;6.594;2023-07-24T04:07:45;14.90;;;7.75;;
52432;SDS011;38352;53.244;6.594;2023-07-24T04:10:11;14.27;;;7.97;;
52432;SDS011;38352;53.244;6.594;2023-07-24T04:12:37;14.15;;;8.27;;
52432;SDS011;38352;53.244;6.594;2023-07-24T04:15:03;13.90;;;7.35;;
52432;SDS011;38352;53.244;6.594;2023-07-24T04:17:29;14.70;;;7.93;;
52432;SDS011;38352;53.244;6.594;2023-07-24T04:19:55;16.17;;;7.70;;
52432;SDS011;38352;53.244;6.594;2023-07-24T04:22:21;13.95;;;8.02;;
52432;SDS011;38352;53.244;6.594;2023-07-24T04:24:47;13.85;;;7.10;;
52432;SDS011;38352;53.244;6.594;2023-07-24T04:27:13;13.15;;;7.50;;
52432;SDS011;38352;53.244;6.594;2023-07-24T04:29:40;12.48;;;7.65;;
52432;SDS011;38352;53.244;6.594;2023-07-24T04:32:06;13.95;;;7.53;;
52432;SDS011;38352;53.244;6.594;2023-07-24T04:34:32;12.80;;;8.13;;
52432;SDS011;38352;53.244;6.594;2023-07-24T04:36:58;13.43;;;7.15;;
52432;SDS011;38352;53.244;6.594;2023-07-24T04:39:24;16.23;;;7.97;;
52432;SDS011;38352;53.244;6.594;2023-07-24T04:41:50;13.57;;;8.15;;
52432;SDS011;38352;53.244;6.594;2023-07-24T04:44:16;13.70;;;8.20;;
52432;SDS011;38352;53.244;6.594;2023-07-24T04:46:42;13.95;;;7.80;;
52432;SDS011;38352;53.244;6.594;2023-07-24T04:49:08;12.70;;;8.32;;
52432;SDS011;38352;53.244;6.594;2023-07-24T04:51:34;13.75;;;9.05;;
52432;SDS011;38352;53.244;6.594;2023-07-24T04:54:00;14.38;;;9.25;;
52432;SDS011;38352;53.244;6.594;2023-07-24T04:56:26;12.80;;;8.45;;
52432;SDS011;38352;53.244;6.594;2023-07-24T04:58:53;15.23;;;9.15;;
52432;SDS011;38352;53.244;6.594;2023-07-24T05:01:19;15.73;;;9.98;;
52432;SDS011;38352;53.244;6.594;2023-07-24T05:03:45;13.05;;;8.77;;
52432;SDS011;38352;53.244;6.594;2023-07-24T05:06:11;14.40;;;9.35;;
52432;SDS011;38352;53.244;6.594;2023-07-24T05:08:37;13.43;;;9.60;;
52432;SDS011;38352;53.244;6.594;2023-07-24T05:11:03;17.60;;;9.93;;
52432;SDS011;38352;53.244;6.594;2023-07-24T05:13:29;14.38;;;8.68;;
52432;SDS011;38352;53.244;6.594;2023-07-24T05:15:55;15.48;;;9.27;;
52432;SDS011;38352;53.244;6.594;2023-07-24T05:18:21;15.90;;;9.82;;
52432;SDS011;38352;53.244;6.594;2023-07-24T05:20:48;15.05;;;8.60;;
52432;SDS011;38352;53.244;6.594;2023-07-24T05:23:16;13.20;;;9.48;;
52432;SDS011;38352;53.244;6.594;2023-07-24T05:25:42;16.98;;;10.23;;
52432;SDS011;38352;53.244;6.594;2023-07-24T05:28:09;16.10;;;9.20;;
52432;SDS011;38352;53.244;6.594;2023-07-24T05:30:35;16.10;;;9.57;;
52432;SDS011;38352;53.244;6.594;2023-07-24T05:33:01;16.52;;;9.95;;
52432;SDS011;38352;53.244;6.594;2023-07-24T05:35:27;20.23;;;9.80;;
52432;SDS011;38352;53.244;6.594;2023-07-24T05:37:53;17.33;;;10.40;;
52432;SDS011;38352;53.244;6.594;2023-07-24T05:40:19;16.67;;;10.00;;
52432;SDS011;38352;53.244;6.594;2023-07-24T05:42:45;15.68;;;8.93;;
52432;SDS011;38352;53.244;6.594;2023-07-24T05:45:12;16.20;;;9.00;;
52432;SDS011;38352;53.244;6.594;2023-07-24T05:47:40;18.48;;;10.30;;
52432;SDS011;38352;53.244;6.594;2023-07-24T05:50:06;16.33;;;10.48;;
52432;SDS011;38352;53.244;6.594;2023-07-24T05:52:32;13.32;;;9.57;;
52432;SDS011;38352;53.244;6.594;2023-07-24T05:54:58;15.02;;;9.68;;
52432;SDS011;38352;53.244;6.594;2023-07-24T05:57:24;14.77;;;9.60;;
52432;SDS011;38352;53.244;6.594;2023-07-24T05:59:50;16.55;;;10.50;;
52432;SDS011;38352;53.244;6.594;2023-07-24T06:02:17;15.65;;;10.32;;
52432;SDS011;38352;53.244;6.594;2023-07-24T06:04:43;14.93;;;9.65;;
52432;SDS011;38352;53.244;6.594;2023-07-24T06:07:09;18.55;;;10.80;;
52432;SDS011;38352;53.244;6.594;2023-07-24T06:09:35;17.95;;;10.20;;
52432;SDS011;38352;53.244;6.594;2023-07-24T06:12:01;27.52;;;10.65;;
52432;SDS011;38352;53.244;6.594;2023-07-24T06:14:27;14.95;;;9.85;;
52432;SDS011;38352;53.244;6.594;2023-07-24T06:16:53;17.40;;;10.18;;
52432;SDS011;38352;53.244;6.594;2023-07-24T06:19:19;14.73;;;9.70;;
52432;SDS011;38352;53.244;6.594;2023-07-24T06:21:46;15.48;;;9.85;;
52432;SDS011;38352;53.244;6.594;2023-07-24T06:24:12;15.35;;;9.35;;
52432;SDS011;38352;53.244;6.594;2023-07-24T06:26:38;15.85;;;9.23;;
52432;SDS011;38352;53.244;6.594;2023-07-24T06:29:05;15.50;;;9.30;;
52432;SDS011;38352;53.244;6.594;2023-07-24T06:31:31;16.52;;;9.77;;
52432;SDS011;38352;53.244;6.594;2023-07-24T06:33:57;15.77;;;9.30;;
52432;SDS011;38352;53.244;6.594;2023-07-24T06:36:23;15.38;;;9.88;;
52432;SDS011;38352;53.244;6.594;2023-07-24T06:38:49;14.50;;;8.88;;
52432;SDS011;38352;53.244;6.594;2023-07-24T06:41:15;19.15;;;9.55;;
52432;SDS011;38352;53.244;6.594;2023-07-24T06:43:41;15.20;;;9.88;;
52432;SDS011;38352;53.244;6.594;2023-07-24T06:46:08;15.80;;;9.73;;
52432;SDS011;38352;53.244;6.594;2023-07-24T06:48:34;17.45;;;9.68;;
52432;SDS011;38352;53.244;6.594;2023-07-24T06:51:00;18.27;;;9.32;;
52432;SDS011;38352;53.244;6.594;2023-07-24T06:53:26;15.98;;;8.55;;
52432;SDS011;38352;53.244;6.594;2023-07-24T06:55:52;18.33;;;9.48;;
52432;SDS011;38352;53.244;6.594;2023-07-24T06:58:18;15.95;;;9.10;;
52432;SDS011;38352;53.244;6.594;2023-07-24T07:00:44;15.43;;;9.18;;
52432;SDS011;38352;53.244;6.594;2023-07-24T07:03:10;16.40;;;9.45;;
52432;SDS011;38352;53.244;6.594;2023-07-24T07:05:36;15.63;;;8.88;;
52432;SDS011;38352;53.244;6.594;2023-07-24T07:08:02;19.15;;;9.98;;
52432;SDS011;38352;53.244;6.594;2023-07-24T07:10:30;14.73;;;9.30;;
52432;SDS011;38352;53.244;6.594;2023-07-24T07:12:56;15.70;;;9.02;;
52432;SDS011;38352;53.244;6.594;2023-07-24T07:15:22;16.02;;;9.48;;
52432;SDS011;38352;53.244;6.594;2023-07-24T07:17:49;15.25;;;8.65;;
52432;SDS011;38352;53.244;6.594;2023-07-24T07:20:15;16.23;;;9.20;;
52432;SDS011;38352;53.244;6.594;2023-07-24T07:22:41;15.48;;;9.70;;
52432;SDS011;38352;53.244;6.594;2023-07-24T07:25:07;16.85;;;9.60;;
52432;SDS011;38352;53.244;6.594;2023-07-24T07:27:33;14.75;;;8.65;;
52432;SDS011;38352;53.244;6.594;2023-07-24T07:30:00;17.13;;;9.50;;
52432;SDS011;38352;53.244;6.594;2023-07-24T07:32:26;15.52;;;9.73;;
52432;SDS011;38352;53.244;6.594;2023-07-24T07:34:52;13.88;;;8.85;;
52432;SDS011;38352;53.244;6.594;2023-07-24T07:37:18;14.95;;;9.02;;
52432;SDS011;38352;53.244;6.594;2023-07-24T07:39:44;16.33;;;9.35;;
52432;SDS011;38352;53.244;6.594;2023-07-24T07:42:10;19.35;;;9.30;;
52432;SDS011;38352;53.244;6.594;2023-07-24T07:44:36;16.00;;;9.00;;
52432;SDS011;38352;53.244;6.594;2023-07-24T07:47:02;17.23;;;9.98;;
52432;SDS011;38352;53.244;6.594;2023-07-24T07:49:29;18.10;;;9.68;;
52432;SDS011;38352;53.244;6.594;2023-07-24T07:51:55;19.38;;;9.38;;
52432;SDS011;38352;53.244;6.594;2023-07-24T07:54:21;21.17;;;8.98;;
52432;SDS011;38352;53.244;6.594;2023-07-24T07:56:47;15.93;;;9.82;;
52432;SDS011;38352;53.244;6.594;2023-07-24T07:59:13;16.33;;;9.27;;
52432;SDS011;38352;53.244;6.594;2023-07-24T08:01:39;14.07;;;8.68;;
52432;SDS011;38352;53.244;6.594;2023-07-24T08:04:07;18.77;;;9.55;;
52432;SDS011;38352;53.244;6.594;2023-07-24T08:06:33;16.85;;;9.85;;
52432;SDS011;38352;53.244;6.594;2023-07-24T08:08:59;17.00;;;9.80;;
52432;SDS011;38352;53.244;6.594;2023-07-24T08:11:25;17.73;;;9.45;;
52432;SDS011;38352;53.244;6.594;2023-07-24T08:13:51;18.20;;;8.82;;
52432;SDS011;38352;53.244;6.594;2023-07-24T08:16:17;17.58;;;9.18;;
52432;SDS011;38352;53.244;6.594;2023-07-24T08:18:45;14.90;;;8.48;;
52432;SDS011;38352;53.244;6.594;2023-07-24T08:21:11;18.88;;;9.77;;
52432;SDS011;38352;53.244;6.594;2023-07-24T08:23:38;17.90;;;9.35;;
52432;SDS011;38352;53.244;6.594;2023-07-24T08:26:05;14.43;;;8.38;;
52432;SDS011;38352;53.244;6.594;2023-07-24T08:28:31;15.30;;;8.45;;
52432;SDS011;38352;53.244;6.594;2023-07-24T08:30:59;13.80;;;7.85;;
52432;SDS011;38352;53.244;6.594;2023-07-24T08:33:27;15.00;;;8.55;;
52432;SDS011;38352;53.244;6.594;2023-07-24T08:36:00;16.38;;;9.60;;
52432;SDS011;38352;53.244;6.594;2023-07-24T08:40:59;15.05;;;7.78;;
52432;SDS011;38352;53.244;6.594;2023-07-24T08:43:26;16.10;;;9.15;;
52432;SDS011;38352;53.244;6.594;2023-07-24T08:45:52;17.35;;;9.50;;
52432;SDS011;38352;53.244;6.594;2023-07-24T08:48:19;18.40;;;9.07;;
52432;SDS011;38352;53.244;6.594;2023-07-24T08:50:46;16.15;;;8.40;;
52432;SDS011;38352;53.244;6.594;2023-07-24T08:53:12;16.83;;;8.68;;
52432;SDS011;38352;53.244;6.594;2023-07-24T08:55:39;15.93;;;8.82;;
52432;SDS011;38352;53.244;6.594;2023-07-24T08:58:05;15.70;;;8.77;;
52432;SDS011;38352;53.244;6.594;2023-07-24T09:00:32;20.15;;;8.82;;
52432;SDS011;38352;53.244;6.594;2023-07-24T09:02:58;13.63;;;8.55;;
52432;SDS011;38352;53.244;6.594;2023-07-24T09:05:24;13.38;;;8.10;;
52432;SDS011;38352;53.244;6.594;2023-07-24T09:07:50;17.38;;;7.93;;
52432;SDS011;38352;53.244;6.594;2023-07-24T09:10:16;17.83;;;8.20;;
52432;SDS011;38352;53.244;6.594;2023-07-24T09:12:42;18.58;;;8.68;;
52432;SDS011;38352;53.244;6.594;2023-07-24T09:15:09;18.25;;;8.73;;
52432;SDS011;38352;53.244;6.594;2023-07-24T09:17:35;13.55;;;8.43;;
52432;SDS011;38352;53.244;6.594;2023-07-24T09:20:01;16.98;;;8.45;;
52432;SDS011;38352;53.244;6.594;2023-07-24T09:22:28;17.10;;;9.18;;
52432;SDS011;38352;53.244;6.594;2023-07-24T09:24:55;15.70;;;8.68;;
52432;SDS011;38352;53.244;6.594;2023-07-24T09:27:26;19.27;;;8.55;;
52432;SDS011;38352;53.244;6.594;2023-07-24T09:29:52;15.82;;;8.55;;
52432;SDS011;38352;53.244;6.594;2023-07-24T09:32:26;14.30;;;7.75;;
52432;SDS011;38352;53.244;6.594;2023-07-24T09:37:30;15.27;;;7.15;;
52432;SDS011;38352;53.244;6.594;2023-07-24T09:39:56;14.15;;;7.57;;
52432;SDS011;38352;53.244;6.594;2023-07-24T09:42:34;19.45;;;7.63;;
52432;SDS011;38352;53.244;6.594;2023-07-24T09:45:04;15.80;;;8.18;;
52432;SDS011;38352;53.244;6.594;2023-07-24T09:47:30;20.23;;;8.38;;
52432;SDS011;38352;53.244;6.594;2023-07-24T09:49:57;13.63;;;7.65;;
52432;SDS011;38352;53.244;6.594;2023-07-24T09:52:23;16.55;;;8.20;;
52432;SDS011;38352;53.244;6.594;2023-07-24T09:55:02;18.02;;;8.45;;
52432;SDS011;38352;53.244;6.594;2023-07-24T09:57:30;13.95;;;7.20;;
52432;SDS011;38352;53.244;6.594;2023-07-24T09:59:56;17.33;;;8.35;;
52432;SDS011;38352;53.244;6.594;2023-07-24T10:02:23;11.73;;;7.28;;
52432;SDS011;38352;53.244;6.594;2023-07-24T10:04:50;15.80;;;7.00;;
52432;SDS011;38352;53.244;6.594;2023-07-24T10:07:16;14.82;;;7.28;;
52432;SDS011;38352;53.244;6.594;2023-07-24T10:09:46;13.70;;;7.25;;
52432;SDS011;38352;53.244;6.594;2023-07-24T10:12:14;13.77;;;6.88;;
52432;SDS011;38352;53.244;6.594;2023-07-24T10:14:42;12.02;;;6.38;;
52432;SDS011;38352;53.244;6.594;2023-07-24T10:17:09;12.68;;;6.82;;
52432;SDS011;38352;53.244;6.594;2023-07-24T10:19:35;11.77;;;6.38;;
52432;SDS011;38352;53.244;6.594;2023-07-24T10:22:03;10.80;;;6.93;;
52432;SDS011;38352;53.244;6.594;2023-07-24T10:24:29;13.93;;;6.60;;
52432;SDS011;38352;53.244;6.594;2023-07-24T10:26:56;14.70;;;7.72;;
52432;SDS011;38352;53.244;6.594;2023-07-24T10:29:25;16.40;;;8.70;;
52432;SDS011;38352;53.244;6.594;2023-07-24T10:31:54;14.20;;;7.97;;
52432;SDS011;38352;53.244;6.594;2023-07-24T10:34:20;14.45;;;8.43;;
52432;SDS011;38352;53.244;6.594;2023-07-24T10:36:47;12.68;;;8.18;;
52432;SDS011;38352;53.244;6.594;2023-07-24T10:39:13;15.57;;;8.70;;
52432;SDS011;38352;53.244;6.594;2023-07-24T10:41:40;12.85;;;6.93;;
52432;SDS011;38352;53.244;6.594;2023-07-24T10:44:06;11.15;;;7.82;;
52432;SDS011;38352;53.244;6.594;2023-07-24T10:46:39;13.35;;;7.32;;
52432;SDS011;38352;53.244;6.594;2023-07-24T10:49:06;9.23;;;6.88;;
52432;SDS011;38352;53.244;6.594;2023-07-24T10:51:32;8.63;;;5.57;;
52432;SDS011;38352;53.244;6.594;2023-07-24T10:53:59;9.60;;;5.07;;
52432;SDS011;38352;53.244;6.594;2023-07-24T10:56:25;11.57;;;4.78;;
52432;SDS011;38352;53.244;6.594;2023-07-24T10:58:52;11.93;;;5.38;;
52432;SDS011;38352;53.244;6.594;2023-07-24T11:01:18;10.02;;;5.30;;
52432;SDS011;38352;53.244;6.594;2023-07-24T11:03:44;11.30;;;5.97;;
52432;SDS011;38352;53.244;6.594;2023-07-24T11:06:12;9.00;;;5.85;;
52432;SDS011;38352;53.244;6.594;2023-07-24T11:08:38;7.88;;;5.22;;
52432;SDS011;38352;53.244;6.594;2023-07-24T11:11:05;11.20;;;5.93;;
52432;SDS011;38352;53.244;6.594;2023-07-24T11:13:32;10.05;;;5.95;;
52432;SDS011;38352;53.244;6.594;2023-07-24T11:16:03;10.23;;;5.68;;
52432;SDS011;38352;53.244;6.594;2023-07-24T11:18:30;10.13;;;6.15;;
52432;SDS011;38352;53.244;6.594;2023-07-24T11:20:56;9.35;;;6.35;;
52432;SDS011;38352;53.244;6.594;2023-07-24T11:23:23;10.07;;;6.20;;
52432;SDS011;38352;53.244;6.594;2023-07-24T11:25:50;8.50;;;4.85;;
52432;SDS011;38352;53.244;6.594;2023-07-24T11:28:17;11.02;;;5.85;;
52432;SDS011;38352;53.244;6.594;2023-07-24T11:30:43;12.23;;;5.65;;
52432;SDS011;38352;53.244;6.594;2023-07-24T11:33:10;11.80;;;7.38;;
52432;SDS011;38352;53.244;6.594;2023-07-24T11:35:37;13.50;;;7.15;;
52432;SDS011;38352;53.244;6.594;2023-07-24T11:38:05;12.50;;;8.43;;
52432;SDS011;38352;53.244;6.594;2023-07-24T11:40:32;14.80;;;9.27;;
52432;SDS011;38352;53.244;6.594;2023-07-24T11:42:58;13.35;;;8.57;;
52432;SDS011;38352;53.244;6.594;2023-07-24T11:45:24;10.80;;;7.82;;
52432;SDS011;38352;53.244;6.594;2023-07-24T11:47:50;11.25;;;8.35;;
52432;SDS011;38352;53.244;6.594;2023-07-24T11:50:19;17.00;;;8.90;;
52432;SDS011;38352;53.244;6.594;2023-07-24T11:52:50;13.82;;;8.77;;
52432;SDS011;38352;53.244;6.594;2023-07-24T11:55:17;11.32;;;7.72;;
52432;SDS011;38352;53.244;6.594;2023-07-24T11:57:54;12.27;;;7.55;;
52432;SDS011;38352;53.244;6.594;2023-07-24T12:00:21;11.00;;;7.03;;
52432;SDS011;38352;53.244;6.594;2023-07-24T12:02:47;11.98;;;6.72;;
52432;SDS011;38352;53.244;6.594;2023-07-24T12:05:13;10.35;;;7.28;;
52432;SDS011;38352;53.244;6.594;2023-07-24T12:07:39;12.82;;;7.22;;
52432;SDS011;38352;53.244;6.594;2023-07-24T12:10:08;9.48;;;6.68;;
52432;SDS011;38352;53.244;6.594;2023-07-24T12:12:44;13.05;;;6.78;;
52432;SDS011;38352;53.244;6.594;2023-07-24T12:15:11;10.18;;;6.38;;
52432;SDS011;38352;53.244;6.594;2023-07-24T12:17:37;10.75;;;6.03;;
52432;SDS011;38352;53.244;6.594;2023-07-24T12:20:04;11.00;;;5.72;;
52432;SDS011;38352;53.244;6.594;2023-07-24T12:22:35;8.77;;;5.75;;
52432;SDS011;38352;53.244;6.594;2023-07-24T12:25:01;12.63;;;7.57;;
52432;SDS011;38352;53.244;6.594;2023-07-24T12:27:28;17.58;;;9.25;;
52432;SDS011;38352;53.244;6.594;2023-07-24T12:29:54;16.70;;;9.85;;
52432;SDS011;38352;53.244;6.594;2023-07-24T12:32:20;24.98;;;11.85;;
52432;SDS011;38352;53.244;6.594;2023-07-24T12:34:48;22.65;;;13.43;;
52432;SDS011;38352;53.244;6.594;2023-07-24T12:37:15;22.75;;;12.27;;
52432;SDS011;38352;53.244;6.594;2023-07-24T12:39:41;32.72;;;14.40;;
52432;SDS011;38352;53.244;6.594;2023-07-24T12:42:07;21.60;;;12.15;;
52432;SDS011;38352;53.244;6.594;2023-07-24T12:44:33;19.45;;;11.65;;
52432;SDS011;38352;53.244;6.594;2023-07-24T12:46:59;20.83;;;12.40;;
52432;SDS011;38352;53.244;6.594;2023-07-24T12:49:25;18.42;;;12.13;;
52432;SDS011;38352;53.244;6.594;2023-07-24T12:51:51;17.20;;;11.20;;
52432;SDS011;38352;53.244;6.594;2023-07-24T12:54:17;17.17;;;10.50;;
52432;SDS011;38352;53.244;6.594;2023-07-24T12:56:45;13.63;;;10.23;;
52432;SDS011;38352;53.244;6.594;2023-07-24T12:59:11;16.08;;;10.52;;
52432;SDS011;38352;53.244;6.594;2023-07-24T13:01:37;19.00;;;11.32;;
52432;SDS011;38352;53.244;6.594;2023-07-24T13:04:03;15.60;;;10.35;;
52432;SDS011;38352;53.244;6.594;2023-07-24T13:06:29;17.92;;;10.70;;
52432;SDS011;38352;53.244;6.594;2023-07-24T13:08:55;15.18;;;10.90;;
52432;SDS011;38352;53.244;6.594;2023-07-24T13:11:21;18.85;;;12.02;;
52432;SDS011;38352;53.244;6.594;2023-07-24T13:13:48;19.35;;;12.25;;
52432;SDS011;38352;53.244;6.594;2023-07-24T13:16:15;20.73;;;12.98;;
52432;SDS011;38352;53.244;6.594;2023-07-24T13:18:41;21.73;;;12.32;;
52432;SDS011;38352;53.244;6.594;2023-07-24T13:21:08;21.98;;;12.25;;
52432;SDS011;38352;53.244;6.594;2023-07-24T13:23:35;16.17;;;10.75;;
52432;SDS011;38352;53.244;6.594;2023-07-24T13:26:01;19.60;;;10.98;;
52432;SDS011;38352;53.244;6.594;2023-07-24T13:28:27;16.40;;;8.93;;
52432;SDS011;38352;53.244;6.594;2023-07-24T13:30:53;17.50;;;9.63;;
52432;SDS011;38352;53.244;6.594;2023-07-24T13:33:19;13.60;;;9.05;;
52432;SDS011;38352;53.244;6.594;2023-07-24T13:35:47;11.82;;;7.07;;
52432;SDS011;38352;53.244;6.594;2023-07-24T13:38:15;7.15;;;4.78;;
52432;SDS011;38352;53.244;6.594;2023-07-24T13:40:41;5.47;;;3.22;;
52432;SDS011;38352;53.244;6.594;2023-07-24T13:43:08;6.68;;;3.42;;
52432;SDS011;38352;53.244;6.594;2023-07-24T13:45:34;5.78;;;3.33;;
52432;SDS011;38352;53.244;6.594;2023-07-24T13:48:00;6.70;;;3.35;;
52432;SDS011;38352;53.244;6.594;2023-07-24T13:50:27;6.43;;;3.47;;
52432;SDS011;38352;53.244;6.594;2023-07-24T13:52:53;10.43;;;3.60;;
52432;SDS011;38352;53.244;6.594;2023-07-24T13:55:19;18.73;;;3.05;;
52432;SDS011;38352;53.244;6.594;2023-07-24T13:57:45;8.10;;;2.90;;
52432;SDS011;38352;53.244;6.594;2023-07-24T14:00:11;10.20;;;2.85;;
52432;SDS011;38352;53.244;6.594;2023-07-24T14:02:38;7.57;;;3.15;;
52432;SDS011;38352;53.244;6.594;2023-07-24T14:05:04;6.40;;;2.70;;
52432;SDS011;38352;53.244;6.594;2023-07-24T14:07:30;6.65;;;3.00;;
52432;SDS011;38352;53.244;6.594;2023-07-24T14:09:56;9.00;;;3.53;;
52432;SDS011;38352;53.244;6.594;2023-07-24T14:12:22;10.40;;;4.00;;
52432;SDS011;38352;53.244;6.594;2023-07-24T14:14:48;13.73;;;4.43;;
52432;SDS011;38352;53.244;6.594;2023-07-24T14:17:15;16.48;;;4.47;;
52432;SDS011;38352;53.244;6.594;2023-07-24T14:19:41;14.52;;;4.93;;
52432;SDS011;38352;53.244;6.594;2023-07-24T14:22:07;14.75;;;4.55;;
52432;SDS011;38352;53.244;6.594;2023-07-24T14:24:33;12.82;;;4.03;;
52432;SDS011;38352;53.244;6.594;2023-07-24T14:26:59;11.15;;;4.20;;
52432;SDS011;38352;53.244;6.594;2023-07-24T14:29:25;14.07;;;4.30;;
52432;SDS011;38352;53.244;6.594;2023-07-24T14:31:52;11.55;;;4.05;;
52432;SDS011;38352;53.244;6.594;2023-07-24T14:34:18;9.07;;;4.00;;
52432;SDS011;38352;53.244;6.594;2023-07-24T14:36:44;11.57;;;4.50;;
52432;SDS011;38352;53.244;6.594;2023-07-24T14:39:10;10.20;;;4.53;;